createdAt,value
2016-11-04T00:02:35.093Z,1005.09
2016-11-04T00:12:35.101Z,1005.12
2016-11-04T00:22:35.094Z,1005.08
2016-11-04T00:32:35.100Z,1005.05
2016-11-04T00:42:35.096Z,1004.92
2016-11-04T00:52:35.096Z,1004.99
2016-11-04T01:02:35.094Z,1004.94
2016-11-04T01:12:35.100Z,1004.89
2016-11-04T01:22:35.100Z,1004.73
2016-11-04T01:32:35.099Z,1004.63
2016-11-04T01:42:35.102Z,1004.61
2016-11-04T01:52:35.110Z,1004.58
2016-11-04T02:02:35.110Z,1004.51
2016-11-04T02:12:35.111Z,1004.58
2016-11-04T02:22:35.099Z,1004.42
2016-11-04T02:32:35.104Z,1004.46
2016-11-04T02:42:35.104Z,1004.39
2016-11-04T02:52:35.110Z,1004.16
2016-11-04T03:02:35.103Z,1004.06
2016-11-04T03:12:35.112Z,1004.02
2016-11-04T03:22:35.118Z,1003.89
2016-11-04T03:32:35.112Z,1003.86
2016-11-04T03:42:35.117Z,1003.74
2016-11-04T03:52:35.126Z,1003.62
2016-11-04T04:02:35.121Z,1003.62
2016-11-04T04:12:35.117Z,1003.59
2016-11-04T04:22:35.108Z,1003.35
2016-11-04T04:32:35.113Z,1003.3
2016-11-04T04:42:35.132Z,1003.09
2016-11-04T04:52:35.173Z,1002.93
2016-11-04T05:02:35.121Z,1002.84
2016-11-04T05:12:35.126Z,1002.66
2016-11-04T05:22:35.139Z,1002.61
2016-11-04T05:32:35.151Z,1002.69
2016-11-04T05:42:35.124Z,1002.53
2016-11-04T05:52:35.138Z,1002.57
2016-11-04T06:02:35.126Z,1002.66
2016-11-04T06:12:35.168Z,1002.61
2016-11-04T06:22:35.133Z,1002.59
2016-11-04T06:32:35.142Z,1002.44
2016-11-04T06:42:35.136Z,1002.63
2016-11-04T06:52:35.138Z,1002.6
2016-11-04T07:02:35.135Z,1002.56
2016-11-04T07:12:35.137Z,1002.47
2016-11-04T07:22:35.134Z,1002.39
2016-11-04T07:32:35.137Z,1002.36
2016-11-04T07:42:35.129Z,1002.49
2016-11-04T07:52:35.144Z,1002.4
2016-11-04T08:02:35.133Z,1002.29
2016-11-04T08:12:35.138Z,1002.3
2016-11-04T08:22:35.144Z,1002.35
2016-11-04T08:32:35.141Z,1002.32
2016-11-04T08:42:35.139Z,1002.15
2016-11-04T08:52:35.133Z,1002.12
2016-11-04T09:02:35.139Z,1002.03
2016-11-04T09:12:35.146Z,1001.93
2016-11-04T09:22:35.146Z,1001.9
2016-11-04T09:32:35.153Z,1002
2016-11-04T09:42:35.148Z,1001.85
2016-11-04T09:52:35.156Z,1001.89
2016-11-04T10:02:35.159Z,1001.95
2016-11-04T10:12:35.170Z,1001.65
2016-11-04T10:22:35.162Z,1001.55
2016-11-04T10:32:35.153Z,1001.35
2016-11-04T10:42:35.167Z,1001.32
2016-11-04T10:52:35.162Z,1001.18
2016-11-04T11:02:35.159Z,1000.99
2016-11-04T11:12:35.170Z,1000.85
2016-11-04T11:22:35.157Z,1000.66
2016-11-04T11:32:35.157Z,1000.66
2016-11-04T11:42:35.169Z,1000.39
2016-11-04T11:52:35.174Z,1000.4
2016-11-04T12:02:35.176Z,1000.34
2016-11-04T12:12:35.183Z,1000.03
2016-11-04T12:22:35.176Z,1000.02
2016-11-04T12:32:35.181Z,999.83
2016-11-04T12:42:35.176Z,999.75
2016-11-04T12:52:35.186Z,999.65
2016-11-04T13:02:35.186Z,999.65
2016-11-04T13:12:35.174Z,999.63
2016-11-04T13:22:35.185Z,999.5
2016-11-04T13:32:35.187Z,999.47
2016-11-04T13:42:35.186Z,999.4
2016-11-04T13:52:35.199Z,999.25
2016-11-04T14:02:35.186Z,999.21
2016-11-04T14:12:35.191Z,999.14
2016-11-04T14:22:35.189Z,999.15
2016-11-04T14:32:35.187Z,999.15
2016-11-04T14:42:35.192Z,998.94
2016-11-04T14:52:35.187Z,998.94
2016-11-04T15:02:35.202Z,998.8
2016-11-04T15:12:35.193Z,998.67
2016-11-04T15:22:35.252Z,998.64
2016-11-04T15:32:35.201Z,998.49
2016-11-04T15:42:35.248Z,998.57
2016-11-04T15:52:35.196Z,998.49
2016-11-04T16:02:35.216Z,998.43
2016-11-04T16:12:35.220Z,998.26
2016-11-04T16:22:35.199Z,998.2
2016-11-04T16:32:35.230Z,998.08
2016-11-04T16:42:36.696Z,998
2016-11-04T16:52:35.235Z,998
2016-11-04T17:02:35.207Z,997.93
2016-11-04T17:12:35.201Z,997.89
2016-11-04T17:22:35.218Z,997.9
2016-11-04T17:32:35.222Z,997.84
2016-11-04T17:42:36.711Z,997.74
2016-11-04T17:52:35.215Z,997.64
2016-11-04T18:02:35.212Z,997.57
2016-11-04T18:12:35.215Z,997.4
2016-11-04T18:22:35.291Z,997.3
2016-11-04T18:32:35.236Z,997.21
2016-11-04T18:42:35.245Z,997.02
2016-11-04T18:52:35.218Z,997.09
2016-11-04T19:02:35.214Z,996.86
2016-11-04T19:12:35.213Z,996.8
2016-11-04T19:22:35.217Z,996.75
2016-11-04T19:32:35.250Z,996.62
2016-11-04T19:42:35.227Z,996.62
2016-11-04T19:52:35.217Z,996.59
2016-11-04T20:02:35.211Z,996.55
2016-11-04T20:12:35.233Z,996.41
2016-11-04T20:22:35.215Z,996.43
2016-11-04T20:32:35.220Z,996.47
2016-11-04T20:42:35.239Z,996.23
2016-11-04T20:52:35.238Z,996.05
2016-11-04T21:02:35.220Z,996
2016-11-04T21:12:35.219Z,995.96
2016-11-04T21:22:35.225Z,995.79
2016-11-04T21:32:35.244Z,995.81
2016-11-04T21:42:35.335Z,995.71
2016-11-04T21:52:35.232Z,995.46
